sensor_id;sensor_type;location;lat;lon;timestamp;pressure;altitude;pressure_sealevel;temperature;humidity
51239;BME280;38154;47.548;18.828;2023-04-28T00:01:19;99239.91;;;2.64;100.00
51239;BME280;38154;47.548;18.828;2023-04-28T00:03:45;99244.19;;;2.64;100.00
51239;BME280;38154;47.548;18.828;2023-04-28T00:06:11;99232.78;;;2.57;100.00
51239;BME280;38154;47.548;18.828;2023-04-28T00:08:37;99233.28;;;2.48;100.00
51239;BME280;38154;47.548;18.828;2023-04-28T00:11:02;99234.81;;;2.45;100.00
51239;BME280;38154;47.548;18.828;2023-04-28T00:13:28;99229.69;;;2.45;100.00
51239;BME280;38154;47.548;18.828;2023-04-28T00:15:54;99233.16;;;2.45;100.00
51239;BME280;38154;47.548;18.828;2023-04-28T00:18:20;99221.97;;;2.45;100.00
51239;BME280;38154;47.548;18.828;2023-04-28T00:20:46;99232.16;;;2.41;100.00
51239;BME280;38154;47.548;18.828;2023-04-28T00:23:12;99228.69;;;2.41;100.00
51239;BME280;38154;47.548;18.828;2023-04-28T00:25:38;99232.97;;;2.40;100.00
51239;BME280;38154;47.548;18.828;2023-04-28T00:28:03;99222.47;;;2.36;100.00
51239;BME280;38154;47.548;18.828;2023-04-28T00:30:29;99225.97;;;2.38;100.00
51239;BME280;38154;47.548;18.828;2023-04-28T00:32:55;99217.31;;;2.36;100.00
51239;BME280;38154;47.548;18.828;2023-04-28T00:35:21;99218.97;;;2.34;100.00
51239;BME280;38154;47.548;18.828;2023-04-28T00:37:46;99220.66;;;2.33;100.00
51239;BME280;38154;47.548;18.828;2023-04-28T00:40:12;99221.47;;;2.32;100.00
51239;BME280;38154;47.548;18.828;2023-04-28T00:42:38;99227.41;;;2.31;100.00
51239;BME280;38154;47.548;18.828;2023-04-28T00:45:04;99224.81;;;2.30;100.00
51239;BME280;38154;47.548;18.828;2023-04-28T00:47:32;99217.91;;;2.29;100.00
51239;BME280;38154;47.548;18.828;2023-04-28T00:50:02;99217.03;;;2.28;100.00
51239;BME280;38154;47.548;18.828;2023-04-28T00:52:28;99219.69;;;2.31;100.00
51239;BME280;38154;47.548;18.828;2023-04-28T00:54:54;99215.31;;;2.29;100.00
51239;BME280;38154;47.548;18.828;2023-04-28T00:57:20;99222.16;;;2.28;100.00
51239;BME280;38154;47.548;18.828;2023-04-28T00:59:46;99220.41;;;2.27;100.00
51239;BME280;38154;47.548;18.828;2023-04-28T01:02:12;99230.25;;;2.37;100.00
51239;BME280;38154;47.548;18.828;2023-04-28T01:04:44;99230.66;;;2.47;100.00
51239;BME280;38154;47.548;18.828;2023-04-28T01:07:10;99226.56;;;2.52;100.00
51239;BME280;38154;47.548;18.828;2023-04-28T01:09:36;99228.22;;;2.51;100.00
51239;BME280;38154;47.548;18.828;2023-04-28T01:12:02;99230.41;;;2.62;100.00
51239;BME280;38154;47.548;18.828;2023-04-28T01:14:27;99233.13;;;2.66;100.00
51239;BME280;38154;47.548;18.828;2023-04-28T01:16:53;99233.97;;;2.65;100.00
51239;BME280;38154;47.548;18.828;2023-04-28T01:19:20;99234.91;;;2.67;100.00
51239;BME280;38154;47.548;18.828;2023-04-28T01:21:48;99236.16;;;2.77;100.00
51239;BME280;38154;47.548;18.828;2023-04-28T01:24:15;99239.78;;;2.82;100.00
51239;BME280;38154;47.548;18.828;2023-04-28T01:26:40;99237.16;;;2.81;100.00
51239;BME280;38154;47.548;18.828;2023-04-28T01:29:06;99235.16;;;2.73;100.00
51239;BME280;38154;47.548;18.828;2023-04-28T01:31:32;99242.03;;;2.95;89.69
51239;BME280;38154;47.548;18.828;2023-04-28T01:33:57;99244.44;;;3.13;93.62
51239;BME280;38154;47.548;18.828;2023-04-28T01:36:23;99238.84;;;3.03;95.91
51239;BME280;38154;47.548;18.828;2023-04-28T01:38:49;99236.75;;;2.92;99.18
51239;BME280;38154;47.548;18.828;2023-04-28T01:41:15;99227.16;;;2.88;97.02
51239;BME280;38154;47.548;18.828;2023-04-28T01:43:40;99238.72;;;2.77;100.00
51239;BME280;38154;47.548;18.828;2023-04-28T01:46:08;99228.94;;;2.68;100.00
51239;BME280;38154;47.548;18.828;2023-04-28T01:48:34;99234.78;;;2.64;100.00
51239;BME280;38154;47.548;18.828;2023-04-28T01:51:00;99238.84;;;2.59;100.00
51239;BME280;38154;47.548;18.828;2023-04-28T01:53:25;99229.19;;;2.53;100.00
51239;BME280;38154;47.548;18.828;2023-04-28T01:55:52;99225.66;;;2.51;100.00
51239;BME280;38154;47.548;18.828;2023-04-28T01:58:17;99225.72;;;2.53;100.00
51239;BME280;38154;47.548;18.828;2023-04-28T02:00:43;99233.28;;;2.48;100.00
51239;BME280;38154;47.548;18.828;2023-04-28T02:03:09;99225.66;;;2.51;100.00
51239;BME280;38154;47.548;18.828;2023-04-28T02:05:34;99230.66;;;2.47;100.00
51239;BME280;38154;47.548;18.828;2023-04-28T02:08:01;99231.06;;;2.57;100.00
51239;BME280;38154;47.548;18.828;2023-04-28T02:10:26;99229.81;;;2.69;100.00
51239;BME280;38154;47.548;18.828;2023-04-28T02:12:52;99238.84;;;2.80;98.66
51239;BME280;38154;47.548;18.828;2023-04-28T02:15:18;99235.31;;;2.78;100.00
51239;BME280;38154;47.548;18.828;2023-04-28T02:17:43;99236.81;;;2.73;100.00
51239;BME280;38154;47.548;18.828;2023-04-28T02:20:09;99241.50;;;2.60;100.00
51239;BME280;38154;47.548;18.828;2023-04-28T02:22:35;99240.56;;;2.58;100.00
51239;BME280;38154;47.548;18.828;2023-04-28T02:25:01;99239.81;;;2.40;100.00
51239;BME280;38154;47.548;18.828;2023-04-28T02:27:27;99236.84;;;2.31;100.00
51239;BME280;38154;47.548;18.828;2023-04-28T02:29:53;99245.25;;;2.27;100.00
51239;BME280;38154;47.548;18.828;2023-04-28T02:32:18;99233.50;;;2.12;100.00
51239;BME280;38154;47.548;18.828;2023-04-28T02:34:44;99247.94;;;2.09;100.00
51239;BME280;38154;47.548;18.828;2023-04-28T02:37:10;99237.94;;;1.95;100.00
51239;BME280;38154;47.548;18.828;2023-04-28T02:39:36;99254.22;;;1.96;100.00
51239;BME280;38154;47.548;18.828;2023-04-28T02:42:01;99249.78;;;1.92;100.00
51239;BME280;38154;47.548;18.828;2023-04-28T02:44:29;99258.06;;;1.84;100.00
51239;BME280;38154;47.548;18.828;2023-04-28T02:46:55;99248.97;;;1.73;100.00
51239;BME280;38154;47.548;18.828;2023-04-28T02:49:21;99257.28;;;1.67;100.00
51239;BME280;38154;47.548;18.828;2023-04-28T02:51:47;99255.47;;;1.65;100.00
51239;BME280;38154;47.548;18.828;2023-04-28T02:54:12;99247.75;;;1.65;100.00
51239;BME280;38154;47.548;18.828;2023-04-28T02:56:38;99253.56;;;1.61;100.00
51239;BME280;38154;47.548;18.828;2023-04-28T02:59:05;99255.47;;;1.65;100.00
51239;BME280;38154;47.548;18.828;2023-04-28T03:01:32;99260.59;;;1.65;100.00
51239;BME280;38154;47.548;18.828;2023-04-28T03:03:57;99257.09;;;1.63;100.00
51239;BME280;38154;47.548;18.828;2023-04-28T03:06:23;99265.06;;;1.69;100.00
51239;BME280;38154;47.548;18.828;2023-04-28T03:08:48;99260.06;;;1.72;100.00
51239;BME280;38154;47.548;18.828;2023-04-28T03:11:14;99258.56;;;1.77;100.00
51239;BME280;38154;47.548;18.828;2023-04-28T03:13:40;99263.53;;;1.73;100.00
51239;BME280;38154;47.548;18.828;2023-04-28T03:16:06;99260.69;;;1.66;100.00
51239;BME280;38154;47.548;18.828;2023-04-28T03:18:32;99257.28;;;1.67;100.00
51239;BME280;38154;47.548;18.828;2023-04-28T03:20:57;99258.25;;;1.70;100.00
51239;BME280;38154;47.548;18.828;2023-04-28T03:23:23;99249.78;;;1.72;100.00
51239;BME280;38154;47.548;18.828;2023-04-28T03:25:49;99248.28;;;1.77;100.00
51239;BME280;38154;47.548;18.828;2023-04-28T03:28:14;99246.72;;;1.81;100.00
51239;BME280;38154;47.548;18.828;2023-04-28T03:30:40;99246.63;;;1.78;100.00
51239;BME280;38154;47.548;18.828;2023-04-28T03:33:06;99250.19;;;1.81;100.00
51239;BME280;38154;47.548;18.828;2023-04-28T03:35:31;99252.91;;;1.84;100.00
51239;BME280;38154;47.548;18.828;2023-04-28T03:37:57;99249.56;;;1.87;100.00
51239;BME280;38154;47.548;18.828;2023-04-28T03:40:23;99246.66;;;1.99;100.00
51239;BME280;38154;47.548;18.828;2023-04-28T03:42:49;99241.63;;;2.02;100.00
51239;BME280;38154;47.548;18.828;2023-04-28T03:45:14;99236.84;;;2.10;100.00
51239;BME280;38154;47.548;18.828;2023-04-28T03:47:40;99248.19;;;2.15;100.00
51239;BME280;38154;47.548;18.828;2023-04-28T03:50:06;99243.28;;;2.21;100.00
51239;BME280;38154;47.548;18.828;2023-04-28T03:52:32;99242.69;;;2.27;100.00
51239;BME280;38154;47.548;18.828;2023-04-28T03:54:57;99240.47;;;2.36;100.00
51239;BME280;38154;47.548;18.828;2023-04-28T03:57:23;99250.47;;;2.49;100.00
51239;BME280;38154;47.548;18.828;2023-04-28T03:59:49;99245.84;;;2.62;100.00
51239;BME280;38154;47.548;18.828;2023-04-28T04:02:15;99250.66;;;2.75;100.00
51239;BME280;38154;47.548;18.828;2023-04-28T04:04:41;99247.63;;;2.85;100.00
51239;BME280;38154;47.548;18.828;2023-04-28T04:07:07;99257.34;;;2.92;100.00
51239;BME280;38154;47.548;18.828;2023-04-28T04:09:32;99258.34;;;2.96;100.00
51239;BME280;38154;47.548;18.828;2023-04-28T04:11:58;99259.41;;;3.01;100.00
51239;BME280;38154;47.548;18.828;2023-04-28T04:14:25;99257.25;;;3.12;100.00
51239;BME280;38154;47.548;18.828;2023-04-28T04:16:51;99263.53;;;3.19;100.00
51239;BME280;38154;47.548;18.828;2023-04-28T04:19:16;99253.28;;;3.20;100.00
51239;BME280;38154;47.548;18.828;2023-04-28T04:21:42;99258.84;;;3.31;100.00
51239;BME280;38154;47.548;18.828;2023-04-28T04:24:08;99259.47;;;3.48;100.00
51239;BME280;38154;47.548;18.828;2023-04-28T04:26:33;99261.72;;;3.63;100.00
51239;BME280;38154;47.548;18.828;2023-04-28T04:28:59;99259.28;;;3.90;100.00
51239;BME280;38154;47.548;18.828;2023-04-28T04:31:25;99261.47;;;4.03;100.00
51239;BME280;38154;47.548;18.828;2023-04-28T04:33:51;99261.75;;;4.11;100.00
51239;BME280;38154;47.548;18.828;2023-04-28T04:36:16;99264.50;;;4.41;100.00
51239;BME280;38154;47.548;18.828;2023-04-28T04:38:42;99265.50;;;4.72;100.00
51239;BME280;38154;47.548;18.828;2023-04-28T04:41:08;99259.56;;;5.02;96.88
51239;BME280;38154;47.548;18.828;2023-04-28T04:43:33;99259.56;;;5.31;92.75
51239;BME280;38154;47.548;18.828;2023-04-28T04:45:59;99259.97;;;5.73;94.90
51239;BME280;38154;47.548;18.828;2023-04-28T04:48:25;99259.38;;;6.14;90.90
51239;BME280;38154;47.548;18.828;2023-04-28T04:50:50;99266.84;;;6.70;87.99
51239;BME280;38154;47.548;18.828;2023-04-28T04:53:16;99267.84;;;7.12;75.42
51239;BME280;38154;47.548;18.828;2023-04-28T04:55:42;99269.22;;;7.75;72.27
51239;BME280;38154;47.548;18.828;2023-04-28T04:58:07;99275.97;;;8.11;65.08
51239;BME280;38154;47.548;18.828;2023-04-28T05:00:33;99270.31;;;8.32;60.65
51239;BME280;38154;47.548;18.828;2023-04-28T05:02:59;99283.00;;;8.62;59.52
51239;BME280;38154;47.548;18.828;2023-04-28T05:05:24;99284.19;;;8.81;62.04
51239;BME280;38154;47.548;18.828;2023-04-28T05:07:50;99285.88;;;8.79;61.16
51239;BME280;38154;47.548;18.828;2023-04-28T05:10:16;99283.00;;;8.62;63.53
51239;BME280;38154;47.548;18.828;2023-04-28T05:12:41;99296.22;;;8.76;66.93
51239;BME280;38154;47.548;18.828;2023-04-28T05:15:08;99295.97;;;9.13;68.19
51239;BME280;38154;47.548;18.828;2023-04-28T05:17:34;99289.09;;;9.18;66.01
51239;BME280;38154;47.548;18.828;2023-04-28T05:20:00;99299.00;;;9.42;61.95
51239;BME280;38154;47.548;18.828;2023-04-28T05:22:25;99290.44;;;9.49;61.21
51239;BME280;38154;47.548;18.828;2023-04-28T05:24:51;99295.56;;;9.44;59.78
51239;BME280;38154;47.548;18.828;2023-04-28T05:27:17;99305.72;;;9.27;60.49
51239;BME280;38154;47.548;18.828;2023-04-28T05:29:43;99294.81;;;8.94;61.29
51239;BME280;38154;47.548;18.828;2023-04-28T05:32:08;99301.19;;;9.14;60.15
51239;BME280;38154;47.548;18.828;2023-04-28T05:34:34;99303.00;;;9.20;59.06
51239;BME280;38154;47.548;18.828;2023-04-28T05:36:59;99295.16;;;9.17;55.57
51239;BME280;38154;47.548;18.828;2023-04-28T05:39:25;99297.75;;;9.15;58.14
51239;BME280;38154;47.548;18.828;2023-04-28T05:41:54;99299.78;;;9.36;59.85
51239;BME280;38154;47.548;18.828;2023-04-28T05:44:23;99296.97;;;9.87;60.60
51239;BME280;38154;47.548;18.828;2023-04-28T05:46:48;99299.09;;;10.18;61.30
51239;BME280;38154;47.548;18.828;2023-04-28T05:49:14;99301.84;;;10.31;59.72
51239;BME280;38154;47.548;18.828;2023-04-28T05:51:40;99307.31;;;10.51;62.06
51239;BME280;38154;47.548;18.828;2023-04-28T05:54:06;99303.25;;;10.84;58.73
51239;BME280;38154;47.548;18.828;2023-04-28T05:56:31;99302.44;;;10.89;60.11
51239;BME280;38154;47.548;18.828;2023-04-28T05:58:57;99310.44;;;11.12;56.04
51239;BME280;38154;47.548;18.828;2023-04-28T06:01:23;99298.31;;;11.16;58.07
51239;BME280;38154;47.548;18.828;2023-04-28T06:03:49;99302.72;;;11.29;55.12
51239;BME280;38154;47.548;18.828;2023-04-28T06:06:15;99306.25;;;11.31;56.26
51239;BME280;38154;47.548;18.828;2023-04-28T06:08:41;99311.38;;;11.21;56.72
51239;BME280;38154;47.548;18.828;2023-04-28T06:11:07;99309.53;;;11.07;58.75
51239;BME280;38154;47.548;18.828;2023-04-28T06:13:33;99311.22;;;11.01;60.02
51239;BME280;38154;47.548;18.828;2023-04-28T06:15:58;99307.72;;;10.97;62.28
51239;BME280;38154;47.548;18.828;2023-04-28T06:18:24;99309.56;;;11.09;61.65
51239;BME280;38154;47.548;18.828;2023-04-28T06:20:51;99310.62;;;11.37;62.43
51239;BME280;38154;47.548;18.828;2023-04-28T06:23:17;99314.25;;;11.59;61.90
51239;BME280;38154;47.548;18.828;2023-04-28T06:25:42;99316.25;;;12.06;58.47
51239;BME280;38154;47.548;18.828;2023-04-28T06:28:08;99315.50;;;12.46;55.74
51239;BME280;38154;47.548;18.828;2023-04-28T06:30:34;99316.34;;;12.31;56.46
51239;BME280;38154;47.548;18.828;2023-04-28T06:32:59;99318.16;;;12.54;55.93
51239;BME280;38154;47.548;18.828;2023-04-28T06:35:25;99325.00;;;12.19;57.27
51239;BME280;38154;47.548;18.828;2023-04-28T06:37:51;99326.69;;;11.99;56.96
51239;BME280;38154;47.548;18.828;2023-04-28T06:40:17;99322.19;;;11.73;55.82
51239;BME280;38154;47.548;18.828;2023-04-28T06:42:42;99327.31;;;11.59;55.20
51239;BME280;38154;47.548;18.828;2023-04-28T06:45:08;99326.50;;;11.73;56.19
51239;BME280;38154;47.548;18.828;2023-04-28T06:47:34;99322.31;;;11.93;53.14
51239;BME280;38154;47.548;18.828;2023-04-28T06:50:01;99322.53;;;12.78;53.05
51239;BME280;38154;47.548;18.828;2023-04-28T06:52:27;99326.91;;;13.31;49.55
51239;BME280;38154;47.548;18.828;2023-04-28T06:54:54;99326.94;;;13.39;51.01
51239;BME280;38154;47.548;18.828;2023-04-28T06:57:19;99323.34;;;13.74;46.38
51239;BME280;38154;47.548;18.828;2023-04-28T06:59:45;99321.63;;;13.68;43.05
51239;BME280;38154;47.548;18.828;2023-04-28T07:02:12;99317.28;;;13.58;40.99
51239;BME280;38154;47.548;18.828;2023-04-28T07:04:37;99324.31;;;13.51;41.21
51239;BME280;38154;47.548;18.828;2023-04-28T07:07:03;99326.81;;;13.87;42.42
51239;BME280;38154;47.548;18.828;2023-04-28T07:09:33;99317.88;;;14.36;38.54
51239;BME280;38154;47.548;18.828;2023-04-28T07:11:59;99320.56;;;14.26;38.73
51239;BME280;38154;47.548;18.828;2023-04-28T07:14:24;99311.59;;;14.69;38.53
51239;BME280;38154;47.548;18.828;2023-04-28T07:16:50;99319.84;;;15.33;36.34
51239;BME280;38154;47.548;18.828;2023-04-28T07:19:16;99317.19;;;15.36;35.90
51239;BME280;38154;47.548;18.828;2023-04-28T07:21:41;99313.88;;;15.14;36.84
51239;BME280;38154;47.548;18.828;2023-04-28T07:24:07;99322.09;;;14.66;38.41
51239;BME280;38154;47.548;18.828;2023-04-28T07:26:33;99317.00;;;14.38;36.80
51239;BME280;38154;47.548;18.828;2023-04-28T07:28:59;99316.72;;;14.86;38.06
51239;BME280;38154;47.548;18.828;2023-04-28T07:31:25;99316.63;;;15.01;35.65
51239;BME280;38154;47.548;18.828;2023-04-28T07:33:50;99319.34;;;14.86;36.48
51239;BME280;38154;47.548;18.828;2023-04-28T07:36:16;99314.00;;;14.98;37.46
51239;BME280;38154;47.548;18.828;2023-04-28T07:38:41;99311.38;;;15.00;37.46
51239;BME280;38154;47.548;18.828;2023-04-28T07:41:07;99314.19;;;15.71;35.67
51239;BME280;38154;47.548;18.828;2023-04-28T07:43:33;99312.12;;;16.03;33.60
51239;BME280;38154;47.548;18.828;2023-04-28T07:45:58;99310.94;;;17.42;32.20
51239;BME280;38154;47.548;18.828;2023-04-28T07:48:24;99306.09;;;18.53;30.42
51239;BME280;38154;47.548;18.828;2023-04-28T07:50:52;99314.00;;;17.66;31.01
51239;BME280;38154;47.548;18.828;2023-04-28T07:53:17;99304.03;;;16.80;32.39
51239;BME280;38154;47.548;18.828;2023-04-28T07:55:43;99304.91;;;17.82;32.47
51239;BME280;38154;47.548;18.828;2023-04-28T07:58:10;99303.12;;;18.28;31.33
51239;BME280;38154;47.548;18.828;2023-04-28T08:00:36;99288.97;;;18.32;31.59
51239;BME280;38154;47.548;18.828;2023-04-28T08:03:02;99286.38;;;17.85;30.60
51239;BME280;38154;47.548;18.828;2023-04-28T08:05:28;99282.56;;;18.03;29.88
51239;BME280;38154;47.548;18.828;2023-04-28T08:07:53;99281.53;;;18.49;30.44
51239;BME280;38154;47.548;18.828;2023-04-28T08:10:19;99283.53;;;19.13;29.33
51239;BME280;38154;47.548;18.828;2023-04-28T08:12:45;99276.56;;;19.78;28.37
51239;BME280;38154;47.548;18.828;2023-04-28T08:15:11;99268.00;;;20.29;27.93
51239;BME280;38154;47.548;18.828;2023-04-28T08:17:36;99277.28;;;20.99;27.00
51239;BME280;38154;47.548;18.828;2023-04-28T08:20:02;99275.63;;;20.97;25.95
51239;BME280;38154;47.548;18.828;2023-04-28T08:22:28;99277.94;;;20.51;26.44
51239;BME280;38154;47.548;18.828;2023-04-28T08:24:53;99276.78;;;19.69;26.76
51239;BME280;38154;47.548;18.828;2023-04-28T08:27:19;99275.25;;;19.27;27.39
51239;BME280;38154;47.548;18.828;2023-04-28T08:29:45;99275.44;;;19.21;27.70
51239;BME280;38154;47.548;18.828;2023-04-28T08:32:10;99262.53;;;19.07;28.50
51239;BME280;38154;47.548;18.828;2023-04-28T08:34:36;99267.47;;;19.22;29.03
51239;BME280;38154;47.548;18.828;2023-04-28T08:37:02;99258.62;;;20.17;27.63
51239;BME280;38154;47.548;18.828;2023-04-28T08:39:28;99265.16;;;20.35;27.32
51239;BME280;38154;47.548;18.828;2023-04-28T08:41:55;99275.34;;;19.90;26.11
51239;BME280;38154;47.548;18.828;2023-04-28T08:44:21;99267.97;;;20.59;25.96
51239;BME280;38154;47.548;18.828;2023-04-28T08:46:48;99262.19;;;19.54;26.83
51239;BME280;38154;47.548;18.828;2023-04-28T08:49:15;99262.75;;;19.98;26.65
51239;BME280;38154;47.548;18.828;2023-04-28T08:51:45;99255.16;;;20.45;27.09
51239;BME280;38154;47.548;18.828;2023-04-28T08:54:14;99264.09;;;20.98;25.31
51239;BME280;38154;47.548;18.828;2023-04-28T08:56:44;99259.06;;;20.90;25.91
51239;BME280;38154;47.548;18.828;2023-04-28T08:59:11;99255.56;;;21.15;25.16
51239;BME280;38154;47.548;18.828;2023-04-28T09:01:37;99254.75;;;20.86;25.70
51239;BME280;38154;47.548;18.828;2023-04-28T09:04:03;99250.88;;;20.96;26.78
51239;BME280;38154;47.548;18.828;2023-04-28T09:06:36;99252.34;;;20.22;25.73
51239;BME280;38154;47.548;18.828;2023-04-28T09:09:21;99259.56;;;18.85;27.19
51239;BME280;38154;47.548;18.828;2023-04-28T09:11:50;99257.56;;;18.59;27.17
51239;BME280;38154;47.548;18.828;2023-04-28T09:14:16;99261.75;;;19.38;27.95
51239;BME280;38154;47.548;18.828;2023-04-28T09:16:42;99256.63;;;19.64;26.48
51239;BME280;38154;47.548;18.828;2023-04-28T09:19:08;99266.25;;;19.67;26.80
51239;BME280;38154;47.548;18.828;2023-04-28T09:21:44;99267.50;;;20.46;26.33
51239;BME280;38154;47.548;18.828;2023-04-28T09:24:10;99261.25;;;20.77;25.66
51239;BME280;38154;47.548;18.828;2023-04-28T09:26:47;99258.84;;;19.47;27.09
51239;BME280;38154;47.548;18.828;2023-04-28T09:29:12;99268.47;;;19.17;26.82
51239;BME280;38154;47.548;18.828;2023-04-28T09:31:38;99261.22;;;18.90;27.69
51239;BME280;38154;47.548;18.828;2023-04-28T09:34:05;99253.66;;;19.44;27.29
51239;BME280;38154;47.548;18.828;2023-04-28T09:36:31;99255.50;;;20.05;27.49
51239;BME280;38154;47.548;18.828;2023-04-28T09:38:58;99256.53;;;20.57;25.52
51239;BME280;38154;47.548;18.828;2023-04-28T09:42:42;99241.00;;;20.46;27.23
51239;BME280;38154;47.548;18.828;2023-04-28T09:45:08;99241.00;;;20.46;27.23
51239;BME280;38154;47.548;18.828;2023-04-28T09:47:35;99241.44;;;19.40;27.30
51239;BME280;38154;47.548;18.828;2023-04-28T09:50:04;99235.78;;;18.49;28.73
51239;BME280;38154;47.548;18.828;2023-04-28T09:52:34;99236.66;;;18.48;29.88
51239;BME280;38154;47.548;18.828;2023-04-28T09:55:05;99236.19;;;18.30;29.16
51239;BME280;38154;47.548;18.828;2023-04-28T09:57:34;99240.22;;;18.84;27.71
51239;BME280;38154;47.548;18.828;2023-04-28T10:00:00;99232.88;;;19.30;28.17
51239;BME280;38154;47.548;18.828;2023-04-28T10:02:26;99235.66;;;18.91;28.88
51239;BME280;38154;47.548;18.828;2023-04-28T10:04:52;99223.31;;;18.91;29.28
51239;BME280;38154;47.548;18.828;2023-04-28T10:07:19;99214.09;;;19.06;28.94
51239;BME280;38154;47.548;18.828;2023-04-28T10:09:54;99217.25;;;20.98;27.11
51239;BME280;38154;47.548;18.828;2023-04-28T10:12:20;99206.91;;;21.90;26.90
51239;BME280;38154;47.548;18.828;2023-04-28T10:14:46;99210.25;;;21.46;24.94
51239;BME280;38154;47.548;18.828;2023-04-28T10:17:14;99210.97;;;20.74;25.53
51239;BME280;38154;47.548;18.828;2023-04-28T10:19:40;99200.06;;;20.56;27.13
51239;BME280;38154;47.548;18.828;2023-04-28T10:27:39;99183.72;;;19.54;27.50
51239;BME280;38154;47.548;18.828;2023-04-28T10:30:12;99189.34;;;20.05;27.88
51239;BME280;38154;47.548;18.828;2023-04-28T10:32:38;99190.94;;;20.09;27.05
51239;BME280;38154;47.548;18.828;2023-04-28T10:38:05;99187.47;;;19.14;28.63
51239;BME280;38154;47.548;18.828;2023-04-28T10:40:49;99183.28;;;18.35;29.39
51239;BME280;38154;47.548;18.828;2023-04-28T10:48:23;99168.41;;;17.93;29.10
51239;BME280;38154;47.548;18.828;2023-04-28T10:56:10;99150.91;;;17.47;30.16
51239;BME280;38154;47.548;18.828;2023-04-28T10:58:37;99158.28;;;17.30;31.05
51239;BME280;38154;47.548;18.828;2023-04-28T11:08:53;99146.53;;;17.01;31.61
51239;BME280;38154;47.548;18.828;2023-04-28T11:11:27;99134.78;;;16.69;31.76
51239;BME280;38154;47.548;18.828;2023-04-28T11:13:53;99139.22;;;16.67;32.15
51239;BME280;38154;47.548;18.828;2023-04-28T11:16:23;99129.91;;;16.49;32.84
51239;BME280;38154;47.548;18.828;2023-04-28T11:21:18;99134.06;;;17.09;33.48
51239;BME280;38154;47.548;18.828;2023-04-28T11:23:44;99132.50;;;17.00;32.59
51239;BME280;38154;47.548;18.828;2023-04-28T11:26:10;99140.13;;;16.66;32.28
51239;BME280;38154;47.548;18.828;2023-04-28T11:28:35;99139.69;;;16.91;32.99
51239;BME280;38154;47.548;18.828;2023-04-28T11:31:11;99139.47;;;17.04;32.97
51239;BME280;38154;47.548;18.828;2023-04-28T11:33:37;99134.28;;;17.43;33.80
51239;BME280;38154;47.548;18.828;2023-04-28T11:36:04;99136.03;;;17.45;32.89
51239;BME280;38154;47.548;18.828;2023-04-28T11:38:30;99129.66;;;17.95;30.99
51239;BME280;38154;47.548;18.828;2023-04-28T11:41:07;99128.41;;;18.12;31.13
51239;BME280;38154;47.548;18.828;2023-04-28T11:43:32;99120.59;;;18.43;31.07
51239;BME280;38154;47.548;18.828;2023-04-28T11:45:58;99119.63;;;18.47;31.65
51239;BME280;38154;47.548;18.828;2023-04-28T11:48:23;99117.09;;;18.77;30.27
51239;BME280;38154;47.548;18.828;2023-04-28T11:50:49;99103.38;;;19.27;30.40
51239;BME280;38154;47.548;18.828;2023-04-28T11:53:15;99109.75;;;18.88;31.12
51239;BME280;38154;47.548;18.828;2023-04-28T11:55:41;99110.56;;;18.92;30.58
51239;BME280;38154;47.548;18.828;2023-04-28T11:58:16;99112.09;;;18.32;29.99
51239;BME280;38154;47.548;18.828;2023-04-28T12:00:42;99106.00;;;18.63;29.75
51239;BME280;38154;47.548;18.828;2023-04-28T12:03:07;99103.47;;;18.58;31.32
51239;BME280;38154;47.548;18.828;2023-04-28T12:05:33;99109.91;;;18.84;31.04
51239;BME280;38154;47.548;18.828;2023-04-28T12:08:00;99108.56;;;18.31;30.51
51239;BME280;38154;47.548;18.828;2023-04-28T12:10:26;99107.38;;;17.68;31.01
51239;BME280;38154;47.548;18.828;2023-04-28T12:12:51;99104.50;;;17.38;33.88
51239;BME280;38154;47.548;18.828;2023-04-28T12:15:17;99101.09;;;17.33;32.32
51239;BME280;38154;47.548;18.828;2023-04-28T12:17:43;99098.59;;;17.27;32.58
51239;BME280;38154;47.548;18.828;2023-04-28T12:20:10;99094.56;;;17.09;32.25
51239;BME280;38154;47.548;18.828;2023-04-28T12:25:09;99089.47;;;16.51;33.71
51239;BME280;38154;47.548;18.828;2023-04-28T12:27:35;99087.69;;;16.02;34.40
51239;BME280;38154;47.548;18.828;2023-04-28T12:32:45;99071.19;;;15.91;35.51
51239;BME280;38154;47.548;18.828;2023-04-28T12:35:11;99069.13;;;16.10;35.33
51239;BME280;38154;47.548;18.828;2023-04-28T12:37:37;99068.75;;;16.31;34.68
51239;BME280;38154;47.548;18.828;2023-04-28T12:40:03;99054.78;;;16.28;35.31
51239;BME280;38154;47.548;18.828;2023-04-28T12:42:29;99052.28;;;16.20;35.13
51239;BME280;38154;47.548;18.828;2023-04-28T12:44:55;99045.50;;;16.07;35.64
51239;BME280;38154;47.548;18.828;2023-04-28T12:47:20;99030.59;;;16.07;35.46
51239;BME280;38154;47.548;18.828;2023-04-28T12:49:46;99021.16;;;15.95;35.33
51239;BME280;38154;47.548;18.828;2023-04-28T12:52:15;99018.03;;;16.23;35.81
51239;BME280;38154;47.548;18.828;2023-04-28T12:54:40;99011.16;;;16.63;35.03
51239;BME280;38154;47.548;18.828;2023-04-28T12:57:11;98997.91;;;16.67;35.08
51239;BME280;38154;47.548;18.828;2023-04-28T12:59:38;98996.84;;;16.76;35.53
51239;BME280;38154;47.548;18.828;2023-04-28T13:02:03;98981.97;;;16.74;35.35
51239;BME280;38154;47.548;18.828;2023-04-28T13:04:29;98983.09;;;16.62;35.14
51239;BME280;38154;47.548;18.828;2023-04-28T13:06:56;98984.31;;;16.44;36.35
51239;BME280;38154;47.548;18.828;2023-04-28T13:09:23;98991.38;;;16.42;36.99
51239;BME280;38154;47.548;18.828;2023-04-28T13:11:49;98984.69;;;16.24;37.40
51239;BME280;38154;47.548;18.828;2023-04-28T13:14:15;98986.81;;;16.03;36.88
51239;BME280;38154;47.548;18.828;2023-04-28T13:16:40;98983.41;;;15.98;37.63
51239;BME280;38154;47.548;18.828;2023-04-28T13:19:06;98985.22;;;15.94;38.05
51239;BME280;38154;47.548;18.828;2023-04-28T13:21:35;98985.56;;;15.70;37.42